Terminal Aerodrome Forecast
Issued by NWS

Home | Current Version | Previous Version | Text Only | Print | Product List | Glossary On
Versions: 1 2 3 4 5 6 7 8 9 10 11 12 13 14
000
FTUS42 KTBW 252332
TAFPGD
TAF
KPGD 252332Z 2600/2624 04012KT P6SM VCTS SCT050CB BKN080 BKN250
      TEMPO 2600/2601 VRB15G25KT 3SM TSRA BKN030CB
     FM260100 05007KT P6SM SCT035 BKN200
     FM261500 11011KT P6SM SCT250
     FM262100 12011KT P6SM VCTS SCT050CB BKN250=

USA.gov is the U.S. government's official web portal to all federal, state and local government web resources and services.